New Hampton, New York
Current Conditions -  °F | °C
As of 3:54 PM on Saturday 22 Nov 2014 (Local Time) from KMGJ Reporting Station
Overcast Overcast  
Wind Chill: 32°   Ceiling: 4700
Heat Index: 40°   Visibility: 10mi
Dew Point: 11°   Wind: 15mph
Humidity: 31%   Direction: 220°SW
Pressure: 30.2"   Gusts: 23mph
Location:  41.41°N, 74.41°W
Report Text: KMGJ 222054Z AUTO 22013G20KT 10SM OVC047 04/M12 A3020 RMK AO2 SLP233 T00441117 56018 TSNO
Loading
Personal Weather Stations






























Interactive Weather Map New forecast layout! Learn more

10-Day Weather Forecast

Advertisements
Track Severe Weather on mobile